createdAt,value
2019-02-03T00:00:00.368Z,100
2019-02-03T00:05:00.670Z,100
2019-02-03T00:10:00.713Z,100
2019-02-03T00:15:00.581Z,100
2019-02-03T00:20:00.601Z,100
2019-02-03T00:25:00.575Z,100
2019-02-03T00:30:00.552Z,100
2019-02-03T00:35:00.577Z,100
2019-02-03T00:40:00.538Z,100
2019-02-03T00:45:00.396Z,100
2019-02-03T00:50:00.507Z,100
2019-02-03T00:55:00.543Z,100
2019-02-03T01:00:00.947Z,100
2019-02-03T01:05:00.384Z,100
2019-02-03T01:10:00.543Z,100
2019-02-03T01:15:00.696Z,100
2019-02-03T01:20:00.639Z,100
2019-02-03T01:25:00.678Z,100
2019-02-03T01:30:00.636Z,100
2019-02-03T01:35:00.800Z,100
2019-02-03T01:40:00.819Z,100
2019-02-03T01:45:00.579Z,100
2019-02-03T01:50:00.626Z,100
2019-02-03T01:55:00.501Z,100
2019-02-03T02:00:00.533Z,100
2019-02-03T02:05:00.971Z,100
2019-02-03T02:10:00.424Z,100
2019-02-03T02:15:00.472Z,100
2019-02-03T02:20:00.550Z,100
2019-02-03T02:25:00.480Z,100
2019-02-03T02:30:00.451Z,100
2019-02-03T02:35:00.628Z,100
2019-02-03T02:40:13.698Z,100
2019-02-03T02:45:00.735Z,100
2019-02-03T02:50:00.620Z,100
2019-02-03T02:55:00.802Z,100
2019-02-03T03:00:00.636Z,100
2019-02-03T03:05:00.572Z,100
2019-02-03T03:10:00.787Z,100
2019-02-03T03:15:00.703Z,100
2019-02-03T03:20:00.462Z,100
2019-02-03T03:25:01.014Z,100
2019-02-03T03:30:00.835Z,100
2019-02-03T03:35:00.665Z,100
2019-02-03T03:40:00.808Z,100
2019-02-03T03:45:00.681Z,100
2019-02-03T03:50:00.689Z,100
2019-02-03T03:55:00.658Z,100
2019-02-03T04:00:00.675Z,100
2019-02-03T04:05:00.627Z,100
2019-02-03T04:10:00.504Z,100
2019-02-03T04:15:00.506Z,100
2019-02-03T04:20:00.947Z,100
2019-02-03T04:25:00.816Z,100
2019-02-03T04:30:01.052Z,100
2019-02-03T04:35:01.269Z,100
2019-02-03T04:40:00.915Z,100
2019-02-03T04:45:00.476Z,100
2019-02-03T04:50:00.527Z,100
2019-02-03T04:55:00.641Z,100
2019-02-03T05:00:00.640Z,100
2019-02-03T05:05:00.696Z,100
2019-02-03T05:10:00.806Z,100
2019-02-03T05:15:00.691Z,100
2019-02-03T05:20:00.888Z,100
2019-02-03T05:25:00.614Z,100
2019-02-03T05:30:00.695Z,100
2019-02-03T05:35:00.521Z,100
2019-02-03T05:40:00.761Z,100
2019-02-03T05:45:00.547Z,100
2019-02-03T05:50:03.697Z,100
2019-02-03T05:55:00.748Z,100
2019-02-03T06:00:00.509Z,100
2019-02-03T06:05:00.570Z,100
2019-02-03T06:10:00.647Z,100
2019-02-03T06:15:00.557Z,100
2019-02-03T06:20:00.534Z,100
2019-02-03T06:25:00.733Z,100
2019-02-03T06:30:00.555Z,100
2019-02-03T06:35:00.566Z,100
2019-02-03T06:40:03.879Z,100
2019-02-03T06:45:00.563Z,100
2019-02-03T06:50:00.583Z,100
2019-02-03T06:55:00.876Z,100
2019-02-03T07:00:00.583Z,100
2019-02-03T07:05:00.556Z,100
2019-02-03T07:10:01.436Z,100
2019-02-03T07:15:00.591Z,100
2019-02-03T07:20:00.588Z,100
2019-02-03T07:25:00.583Z,100
2019-02-03T07:30:00.661Z,100
2019-02-03T07:35:00.973Z,100
2019-02-03T07:40:12.948Z,100
2019-02-03T07:45:00.632Z,100
2019-02-03T07:50:00.703Z,100
2019-02-03T07:55:00.706Z,100
2019-02-03T08:00:00.604Z,100
2019-02-03T08:05:00.755Z,100
2019-02-03T08:10:00.659Z,100
2019-02-03T08:15:01.055Z,100
2019-02-03T08:20:00.842Z,100
2019-02-03T08:25:00.648Z,100
2019-02-03T08:30:00.744Z,100
2019-02-03T08:35:00.645Z,100
2019-02-03T08:40:00.642Z,100
2019-02-03T08:45:00.623Z,100
2019-02-03T08:50:00.623Z,100
2019-02-03T08:55:01.097Z,100
2019-02-03T09:00:00.632Z,100
2019-02-03T09:05:00.979Z,100
2019-02-03T09:10:01.099Z,100
2019-02-03T09:15:00.935Z,100
2019-02-03T09:20:00.848Z,100
2019-02-03T09:25:00.704Z,100
2019-02-03T09:30:00.700Z,100
2019-02-03T09:35:00.990Z,99.6
2019-02-03T09:40:00.669Z,98.8
2019-02-03T09:45:00.679Z,98.9
2019-02-03T09:50:00.716Z,97.6
2019-02-03T09:55:00.724Z,98.7
2019-02-03T10:00:00.679Z,97.9
2019-02-03T10:05:00.741Z,97.8
2019-02-03T10:10:00.767Z,98
2019-02-03T10:15:01.029Z,97.3
2019-02-03T10:20:01.422Z,97.5
2019-02-03T10:25:00.726Z,97
2019-02-03T10:30:01.938Z,96.7
2019-02-03T10:35:00.726Z,95.1
2019-02-03T10:40:00.813Z,93.7
2019-02-03T10:45:00.709Z,93.1
2019-02-03T10:50:01.879Z,92.3
2019-02-03T10:55:00.782Z,92.2
2019-02-03T11:00:00.776Z,92.2
2019-02-03T11:05:00.742Z,91.4
2019-02-03T11:10:01.284Z,90.7
2019-02-03T11:15:00.752Z,90.5
2019-02-03T11:20:00.810Z,89.7
2019-02-03T11:25:01.242Z,89.5
2019-02-03T11:30:00.735Z,89.5
2019-02-03T11:35:00.927Z,90.3
2019-02-03T11:40:01.232Z,90
2019-02-03T11:45:00.878Z,89.9
2019-02-03T11:50:00.940Z,89.1
2019-02-03T11:55:00.878Z,88.8
2019-02-03T12:00:00.770Z,88.4
2019-02-03T12:05:01.785Z,87.6
2019-02-03T12:10:00.760Z,87.8
2019-02-03T12:15:00.766Z,88.4
2019-02-03T12:20:00.770Z,87
2019-02-03T12:25:00.796Z,86.9
2019-02-03T12:30:00.777Z,86.2
2019-02-03T12:35:00.800Z,86.4
2019-02-03T12:40:01.149Z,86
2019-02-03T12:45:02.120Z,87.1
2019-02-03T12:50:00.853Z,85.5
2019-02-03T12:55:00.788Z,86.2
2019-02-03T13:00:00.874Z,86
2019-02-03T13:05:00.921Z,86.8
2019-02-03T13:10:00.828Z,85.6
2019-02-03T13:15:00.959Z,86.5
2019-02-03T13:20:00.774Z,85.3
2019-02-03T13:25:03.922Z,86.4
2019-02-03T13:30:00.992Z,85.5
2019-02-03T13:35:00.881Z,84.7
2019-02-03T13:40:00.807Z,84.6
2019-02-03T13:45:00.897Z,85.3
2019-02-03T13:50:01.071Z,85.7
2019-02-03T13:55:00.917Z,86.6
2019-02-03T14:00:01.454Z,87.5
2019-02-03T14:05:00.929Z,87.2
2019-02-03T14:10:00.957Z,87.6
2019-02-03T14:15:01.165Z,86.7
2019-02-03T14:20:00.856Z,85.8
2019-02-03T14:25:00.992Z,85.2
2019-02-03T14:30:01.182Z,84.8
2019-02-03T14:35:02.113Z,85.4
2019-02-03T14:40:01.012Z,85.1
2019-02-03T14:45:00.854Z,84.2
2019-02-03T14:50:01.004Z,84.9
2019-02-03T14:55:01.237Z,84.8
2019-02-03T15:00:03.478Z,85
2019-02-03T15:05:01.743Z,85.5
2019-02-03T15:10:00.890Z,85.6
2019-02-03T15:15:00.823Z,86.4
2019-02-03T15:20:01.346Z,85.7
2019-02-03T15:25:00.848Z,85.8
2019-02-03T15:30:02.676Z,84.9
2019-02-03T15:35:01.004Z,86.7
2019-02-03T15:40:01.126Z,87.2
2019-02-03T15:45:00.920Z,88.1
2019-02-03T15:50:01.120Z,88.4
2019-02-03T15:55:01.073Z,88.5
2019-02-03T16:00:01.415Z,88.9
2019-02-03T16:05:01.343Z,88.7
2019-02-03T16:10:00.900Z,89.1
2019-02-03T16:15:03.721Z,89.5
2019-02-03T16:20:01.099Z,89.8
2019-02-03T16:25:03.991Z,90
2019-02-03T16:30:00.954Z,90.9
2019-02-03T16:35:01.202Z,92.2
2019-02-03T16:40:00.896Z,93.4
2019-02-03T16:45:00.895Z,94.9
2019-02-03T16:50:00.978Z,95.4
2019-02-03T16:55:00.900Z,96.3
2019-02-03T17:00:00.942Z,97.4
2019-02-03T17:05:00.911Z,97.4
2019-02-03T17:10:04.947Z,98.1
2019-02-03T17:15:00.907Z,98
2019-02-03T17:20:01.173Z,97.4
2019-02-03T17:25:01.020Z,97.8
2019-02-03T17:30:00.979Z,97.7
2019-02-03T17:35:00.940Z,98.7
2019-02-03T17:40:00.975Z,98
2019-02-03T17:45:01.103Z,97.7
2019-02-03T17:50:01.993Z,96.9
2019-02-03T17:55:03.961Z,96.3
2019-02-03T18:00:00.947Z,97.3
2019-02-03T18:05:00.925Z,97.5
2019-02-03T18:10:01.977Z,98
2019-02-03T18:15:07.106Z,98.2
2019-02-03T18:20:01.031Z,97.7
2019-02-03T18:25:00.917Z,97.3
2019-02-03T18:30:00.976Z,96.3
2019-02-03T18:35:01.023Z,95.5
2019-02-03T18:40:01.227Z,94.8
2019-02-03T18:45:02.078Z,94.7
2019-02-03T18:50:01.945Z,94.1
2019-02-03T18:55:00.993Z,94.2
2019-02-03T19:00:06.252Z,94.2
2019-02-03T19:05:01.068Z,94.3
2019-02-03T19:10:00.995Z,94.5
2019-02-03T19:15:02.078Z,94.6
2019-02-03T19:20:00.980Z,94.7
2019-02-03T19:25:01.123Z,94.8
2019-02-03T19:30:01.028Z,94.4
2019-02-03T19:35:01.376Z,94.5
2019-02-03T19:40:01.289Z,94.8
2019-02-03T19:45:01.053Z,96.3
2019-02-03T19:50:02.355Z,96
2019-02-03T19:55:01.044Z,96.7
2019-02-03T20:00:01.662Z,96.7
2019-02-03T20:05:01.053Z,97.4
2019-02-03T20:10:01.557Z,97.3
2019-02-03T20:15:10.498Z,97.7
2019-02-03T20:20:01.062Z,98
2019-02-03T20:25:01.199Z,97.2
2019-02-03T20:30:01.090Z,97.5
2019-02-03T20:35:01.072Z,97.4
2019-02-03T20:40:02.962Z,97.5
2019-02-03T20:45:01.193Z,97.7
2019-02-03T20:50:01.071Z,98.4
2019-02-03T20:55:01.353Z,99.3
2019-02-03T21:00:01.050Z,99.6
2019-02-03T21:05:01.420Z,100
2019-02-03T21:10:01.121Z,100
2019-02-03T21:15:01.069Z,100
2019-02-03T21:20:01.068Z,100
2019-02-03T21:25:01.137Z,100
2019-02-03T21:30:01.068Z,100
2019-02-03T21:35:01.295Z,100
2019-02-03T21:40:01.169Z,100
2019-02-03T21:45:01.081Z,100
2019-02-03T21:50:01.542Z,100
2019-02-03T21:55:01.050Z,100
2019-02-03T22:00:01.062Z,100
2019-02-03T22:05:01.280Z,100
2019-02-03T22:10:01.194Z,100
2019-02-03T22:15:01.254Z,100
2019-02-03T22:20:01.060Z,100
2019-02-03T22:25:01.086Z,100
2019-02-03T22:30:01.056Z,100
2019-02-03T22:35:01.079Z,100
2019-02-03T22:40:01.306Z,100
2019-02-03T22:45:01.131Z,100
2019-02-03T22:50:01.434Z,100
2019-02-03T22:55:01.674Z,100
2019-02-03T23:00:01.080Z,100
2019-02-03T23:05:01.268Z,100
2019-02-03T23:10:01.321Z,100
2019-02-03T23:15:01.224Z,100
2019-02-03T23:20:01.287Z,100
2019-02-03T23:25:01.105Z,100
2019-02-03T23:30:01.128Z,100
2019-02-03T23:35:01.270Z,100
2019-02-03T23:40:01.117Z,100
2019-02-03T23:45:01.344Z,100
2019-02-03T23:50:01.114Z,100
2019-02-03T23:55:01.332Z,100
